Time;durP1;ratioP1;P1;durP2;ratioP2;P2;SDS_P1;SDS_P2;PMS_P1;PMS_P2;Temp;Humidity;BMP_temperature;BMP_pressure;BME280_temperature;BME280_humidity;BME280_pressure;Samples;Min_cycle;Max_cycle;Signal;HPM_P1;HPM_P2
2023/01/27 00:03:08;;;;;;;;;;;9.80;99.90;;;;;;4589107;19;19914;-33
2023/01/27 00:54:02;;;;;;;;;;;9.70;99.90;;;;;;4589335;19;19922;-34
2023/01/27 00:55:33;;;;;;;;;;;9.80;99.90;;;;;;4589043;19;19934;-35
2023/01/27 00:57:05;;;;;;;;;;;9.80;99.90;;;;;;4588810;19;19919;-33
2023/01/27 01:35:35;;;;;;;;;;;9.70;99.90;;;;;;4591923;19;19919;-34
2023/01/27 01:37:06;;;;;;;;;;;9.70;99.90;;;;;;4592914;19;20329;-34
2023/01/27 01:38:37;;;;;;;;;;;9.70;99.90;;;;;;4593487;19;19915;-32
2023/01/27 01:40:11;;;;;;;;;;;9.70;99.90;;;;;;4593665;19;20344;-35
2023/01/27 01:41:42;;;;;;;;;;;9.70;99.90;;;;;;4593718;19;19919;-33
2023/01/27 02:29:04;;;;;;;;;;;9.70;99.90;;;;;;4592486;19;19923;-35
2023/01/27 02:30:36;;;;;;;;;;;9.70;99.90;;;;;;4592834;19;19933;-34
2023/01/27 02:32:06;;;;;;;;;;;9.60;99.90;;;;;;4592751;19;20380;-34
2023/01/27 03:10:35;;;;;;;;;;;9.60;99.90;;;;;;4590050;19;19941;-34
2023/01/27 03:12:19;;;;;;;;;;;9.60;99.90;;;;;;4592263;19;20316;-33
2023/01/27 03:13:49;;;;;;;;;;;9.60;99.90;;;;;;4590773;19;19922;-33
2023/01/27 03:51:01;;;;;;;;;;;9.70;99.90;;;;;;4590972;19;19925;-35
2023/01/27 03:52:32;;;;;;;;;;;9.70;99.90;;;;;;4590849;19;19946;-32
2023/01/27 03:54:03;;;;;;;;;;;9.70;99.90;;;;;;4591129;19;20005;-35
2023/01/27 03:55:35;;;;;;;;;;;9.70;99.90;;;;;;4590430;19;20369;-35
2023/01/27 04:39:36;;;;;;;;;;;9.70;99.90;;;;;;4591382;19;19926;-31
2023/01/27 04:41:08;;;;;;;;;;;9.70;99.90;;;;;;4590049;19;19938;-32
2023/01/27 04:42:40;;;;;;;;;;;9.70;99.90;;;;;;4590083;19;19914;-33
2023/01/27 04:44:11;;;;;;;;;;;9.70;99.90;;;;;;4590107;19;19915;-33
2023/01/27 04:45:43;;;;;;;;;;;9.80;99.90;;;;;;4588942;19;19919;-31
2023/01/27 04:47:14;;;;;;;;;;;9.80;99.90;;;;;;4589759;19;19938;-33
2023/01/27 04:48:45;;;;;;;;;;;9.80;99.90;;;;;;4588848;19;19911;-34
2023/01/27 04:50:17;;;;;;;;;;;9.90;99.80;;;;;;4591889;19;19926;-32
2023/01/27 04:51:48;;;;;;;;;;;9.90;99.80;;;;;;4589579;19;19926;-33
2023/01/27 04:53:20;;;;;;;;;;;9.90;99.80;;;;;;4590035;19;19915;-35
2023/01/27 04:54:51;;;;;;;;;;;9.90;99.80;;;;;;4592466;19;19986;-32
2023/01/27 04:56:25;;;;;;;;;;;10.00;99.90;;;;;;4588723;19;19946;-35
2023/01/27 04:57:57;;;;;;;;;;;10.00;99.80;;;;;;4589222;19;19926;-34
2023/01/27 04:59:28;;;;;;;;;;;10.10;99.70;;;;;;4593060;19;20353;-34
2023/01/27 05:01:00;;;;;;;;;;;10.10;99.70;;;;;;4593242;19;20604;-33
2023/01/27 05:02:31;;;;;;;;;;;10.00;99.70;;;;;;4593225;19;19919;-33
2023/01/27 05:04:02;;;;;;;;;;;9.90;99.80;;;;;;4592931;19;19933;-32
2023/01/27 05:05:33;;;;;;;;;;;9.90;99.70;;;;;;4592966;19;20352;-31
2023/01/27 05:07:04;;;;;;;;;;;9.90;99.70;;;;;;4593291;19;19911;-35
2023/01/27 05:08:36;;;;;;;;;;;10.00;99.80;;;;;;4592894;19;19926;-35
2023/01/27 05:10:07;;;;;;;;;;;10.00;99.60;;;;;;4592438;19;19918;-33
2023/01/27 05:11:38;;;;;;;;;;;10.00;99.60;;;;;;4592700;19;19934;-35
2023/01/27 05:13:10;;;;;;;;;;;10.20;99.70;;;;;;4592388;19;19922;-35
2023/01/27 05:14:41;;;;;;;;;;;10.30;99.50;;;;;;4595847;19;20454;-35
2023/01/27 05:16:13;;;;;;;;;;;10.30;99.60;;;;;;4593836;19;19923;-35
2023/01/27 05:17:45;;;;;;;;;;;10.30;99.50;;;;;;4594787;19;19926;-33
2023/01/27 05:19:16;;;;;;;;;;;10.40;99.40;;;;;;4593539;19;19922;-35
2023/01/27 05:20:46;;;;;;;;;;;10.40;99.50;;;;;;4594400;19;19923;-33
2023/01/27 05:22:18;;;;;;;;;;;10.30;99.50;;;;;;4594309;19;19914;-34
2023/01/27 05:23:49;;;;;;;;;;;10.30;99.60;;;;;;4595087;19;20364;-35
2023/01/27 05:25:20;;;;;;;;;;;10.20;99.60;;;;;;4593228;19;19914;-33
2023/01/27 05:26:52;;;;;;;;;;;10.20;99.60;;;;;;4594271;19;19930;-33
2023/01/27 05:28:23;;;;;;;;;;;10.20;99.90;;;;;;4589372;19;19939;-33
2023/01/27 05:29:55;;;;;;;;;;;10.20;99.80;;;;;;4595847;19;19915;-33
2023/01/27 05:31:28;;;;;;;;;;;10.20;99.80;;;;;;4593522;19;19996;-32
2023/01/27 05:32:59;;;;;;;;;;;10.20;99.70;;;;;;4594042;19;19923;-33
2023/01/27 05:34:29;;;;;;;;;;;10.20;99.60;;;;;;4594284;19;19915;-32
2023/01/27 05:36:01;;;;;;;;;;;10.20;99.70;;;;;;4594492;19;19922;-32
2023/01/27 05:37:32;;;;;;;;;;;10.20;99.60;;;;;;4592173;19;19922;-33
2023/01/27 05:39:03;;;;;;;;;;;10.30;99.50;;;;;;4594229;19;19930;-33
2023/01/27 05:40:34;;;;;;;;;;;10.40;99.50;;;;;;4593468;19;20407;-33
2023/01/27 05:42:05;;;;;;;;;;;10.40;99.40;;;;;;4592806;19;19927;-31
2023/01/27 05:43:37;;;;;;;;;;;10.50;99.40;;;;;;4589742;19;19923;-35
2023/01/27 05:45:08;;;;;;;;;;;10.50;99.40;;;;;;4594711;19;19927;-31
2023/01/27 05:46:39;;;;;;;;;;;10.50;99.40;;;;;;4595432;19;19982;-32
2023/01/27 05:48:10;;;;;;;;;;;10.50;99.30;;;;;;4592412;19;19915;-34
2023/01/27 05:49:42;;;;;;;;;;;10.50;99.20;;;;;;4594226;19;19929;-31
2023/01/27 05:51:13;;;;;;;;;;;10.50;99.10;;;;;;4593985;19;19942;-30
2023/01/27 05:52:44;;;;;;;;;;;10.60;99.10;;;;;;4594070;19;19922;-32
2023/01/27 05:54:16;;;;;;;;;;;10.50;99.10;;;;;;4592755;19;20229;-31
2023/01/27 05:55:47;;;;;;;;;;;10.40;99.30;;;;;;4590498;19;19911;-34
2023/01/27 05:57:18;;;;;;;;;;;10.40;99.30;;;;;;4592090;19;19921;-33
2023/01/27 05:58:49;;;;;;;;;;;10.40;99.30;;;;;;4593476;19;19911;-32
2023/01/27 06:00:20;;;;;;;;;;;10.40;99.20;;;;;;4593765;19;19921;-33
2023/01/27 06:01:51;;;;;;;;;;;10.40;99.30;;;;;;4594152;19;20001;-32
2023/01/27 06:03:22;;;;;;;;;;;10.40;99.40;;;;;;4593100;19;19923;-34
2023/01/27 06:04:54;;;;;;;;;;;10.40;99.30;;;;;;4593110;19;19921;-32
2023/01/27 06:06:26;;;;;;;;;;;10.40;99.40;;;;;;4592813;19;19914;-34
2023/01/27 06:07:57;;;;;;;;;;;10.40;99.60;;;;;;4591406;19;19923;-32
2023/01/27 06:09:29;;;;;;;;;;;10.40;99.40;;;;;;4588628;19;19929;-33
2023/01/27 06:11:00;;;;;;;;;;;10.30;99.30;;;;;;4590522;19;19922;-33
2023/01/27 06:12:31;;;;;;;;;;;10.40;99.40;;;;;;4591351;19;19919;-33
2023/01/27 06:14:02;;;;;;;;;;;10.40;99.50;;;;;;4594675;19;19918;-32
2023/01/27 06:15:33;;;;;;;;;;;10.40;99.60;;;;;;4592731;19;20280;-33
2023/01/27 06:17:04;;;;;;;;;;;10.40;99.60;;;;;;4592123;19;20252;-33
2023/01/27 06:18:35;;;;;;;;;;;10.40;99.50;;;;;;4590788;19;19922;-33
2023/01/27 06:20:06;;;;;;;;;;;10.40;99.50;;;;;;4593260;19;19948;-33
2023/01/27 06:21:37;;;;;;;;;;;10.40;99.50;;;;;;4593016;19;19926;-33
2023/01/27 06:23:09;;;;;;;;;;;10.40;99.60;;;;;;4592643;19;19934;-33
2023/01/27 06:24:39;;;;;;;;;;;10.40;99.70;;;;;;4590614;19;19918;-33
2023/01/27 06:26:12;;;;;;;;;;;10.30;99.60;;;;;;4592101;19;19930;-33
2023/01/27 06:27:44;;;;;;;;;;;10.30;99.60;;;;;;4592478;19;19928;-33
2023/01/27 06:29:15;;;;;;;;;;;10.30;99.70;;;;;;4593383;19;19919;-33
2023/01/27 06:30:46;;;;;;;;;;;10.20;99.80;;;;;;4593718;19;19918;-33
2023/01/27 06:32:17;;;;;;;;;;;10.20;99.80;;;;;;4592601;19;19936;-33
2023/01/27 06:33:50;;;;;;;;;;;10.10;99.80;;;;;;4593210;19;19919;-33
2023/01/27 06:35:21;;;;;;;;;;;10.10;99.90;;;;;;4592216;19;19938;-33
2023/01/27 06:36:52;;;;;;;;;;;10.10;99.90;;;;;;4593594;19;19934;-33
2023/01/27 06:38:23;;;;;;;;;;;10.00;99.90;;;;;;4593186;19;19974;-33
2023/01/27 06:39:54;;;;;;;;;;;10.30;99.70;;;;;;4593506;19;19922;-33
2023/01/27 06:41:26;;;;;;;;;;;10.40;99.90;;;;;;4593398;19;19915;-33
2023/01/27 06:42:58;;;;;;;;;;;10.30;99.90;;;;;;4594298;19;19921;-33
2023/01/27 07:10:53;;;;;;;;;;;10.00;99.90;;;;;;4591989;19;19969;-34
2023/01/27 07:12:24;;;;;;;;;;;10.10;99.90;;;;;;4592535;19;19919;-33
2023/01/27 07:13:56;;;;;;;;;;;10.10;99.90;;;;;;4592099;19;19919;-33
2023/01/27 07:20:44;;;;;;;;;;;10.20;99.90;;;;;;4590424;19;20015;-32
2023/01/27 07:22:17;;;;;;;;;;;10.20;99.90;;;;;;4592131;19;19922;-33
2023/01/27 07:23:51;;;;;;;;;;;10.20;99.90;;;;;;4592251;19;20340;-33
2023/01/27 07:25:28;;;;;;;;;;;10.20;99.90;;;;;;4590444;19;19910;-33
2023/01/27 07:27:00;;;;;;;;;;;10.10;99.90;;;;;;4591258;19;20301;-32
2023/01/27 07:28:31;;;;;;;;;;;10.10;99.90;;;;;;4592333;19;20287;-34
2023/01/27 07:30:02;;;;;;;;;;;10.10;99.90;;;;;;4591406;19;19911;-32
2023/01/27 07:31:33;;;;;;;;;;;10.10;99.90;;;;;;4593691;19;19914;-33
2023/01/27 07:33:05;;;;;;;;;;;10.10;99.90;;;;;;4592363;19;20317;-34
2023/01/27 07:34:36;;;;;;;;;;;10.10;99.90;;;;;;4591964;19;20270;-33
2023/01/27 07:36:08;;;;;;;;;;;10.10;99.90;;;;;;4590801;19;19919;-33
2023/01/27 07:37:39;;;;;;;;;;;10.10;99.90;;;;;;4592405;19;19985;-35
2023/01/27 07:39:10;;;;;;;;;;;10.10;99.90;;;;;;4591740;19;19933;-33
2023/01/27 07:40:42;;;;;;;;;;;10.00;99.90;;;;;;4591081;19;19919;-32
2023/01/27 07:42:13;;;;;;;;;;;10.00;99.90;;;;;;4591801;19;19947;-33
2023/01/27 07:43:43;;;;;;;;;;;10.00;99.90;;;;;;4592055;19;19935;-33
2023/01/27 07:45:15;;;;;;;;;;;10.00;99.90;;;;;;4592328;19;20341;-33
2023/01/27 07:46:46;;;;;;;;;;;10.00;99.90;;;;;;4591510;19;19915;-32
2023/01/27 07:48:17;;;;;;;;;;;10.00;99.90;;;;;;4591495;19;20263;-33
2023/01/27 07:49:48;;;;;;;;;;;10.00;99.90;;;;;;4591935;19;19919;-33
2023/01/27 07:51:19;;;;;;;;;;;10.00;99.90;;;;;;4592975;19;20277;-33
2023/01/27 07:52:50;;;;;;;;;;;10.00;99.90;;;;;;4590422;19;19910;-33
2023/01/27 07:54:21;;;;;;;;;;;10.00;99.90;;;;;;4591495;19;20277;-33
2023/01/27 07:55:52;;;;;;;;;;;10.00;99.90;;;;;;4591378;19;19922;-33
2023/01/27 07:57:23;;;;;;;;;;;10.00;99.90;;;;;;4591363;19;20340;-32
2023/01/27 07:58:54;;;;;;;;;;;10.00;99.90;;;;;;4592000;19;19914;-33
2023/01/27 08:00:27;;;;;;;;;;;10.00;99.90;;;;;;4590602;19;20344;-33
2023/01/27 08:01:57;;;;;;;;;;;10.00;99.90;;;;;;4592360;19;19919;-33
2023/01/27 08:03:30;;;;;;;;;;;10.00;99.90;;;;;;4591383;19;19922;-33
2023/01/27 08:05:01;;;;;;;;;;;10.00;99.90;;;;;;4591545;19;19915;-33
2023/01/27 08:06:32;;;;;;;;;;;10.10;99.90;;;;;;4591932;19;19986;-33
2023/01/27 08:08:03;;;;;;;;;;;10.00;99.90;;;;;;4592209;19;19923;-33
2023/01/27 08:09:34;;;;;;;;;;;10.00;99.90;;;;;;4590289;19;19922;-33
2023/01/27 08:11:08;;;;;;;;;;;10.00;99.90;;;;;;4590431;19;19921;-34
2023/01/27 08:12:40;;;;;;;;;;;10.00;99.90;;;;;;4590247;19;19922;-33
2023/01/27 08:14:11;;;;;;;;;;;10.00;99.90;;;;;;4590225;19;19915;-32
2023/01/27 08:15:42;;;;;;;;;;;10.00;99.90;;;;;;4590124;19;19937;-34
2023/01/27 08:17:13;;;;;;;;;;;10.00;99.90;;;;;;4591492;19;19978;-31
2023/01/27 08:18:44;;;;;;;;;;;10.00;99.90;;;;;;4591866;19;19907;-32
2023/01/27 08:20:16;;;;;;;;;;;10.00;99.90;;;;;;4589161;19;19926;-33
2023/01/27 08:21:49;;;;;;;;;;;10.00;99.90;;;;;;4591127;19;20271;-33
2023/01/27 08:23:22;;;;;;;;;;;10.00;99.90;;;;;;4590974;19;19922;-33
2023/01/27 08:24:53;;;;;;;;;;;10.10;99.90;;;;;;4592212;19;19919;-32
2023/01/27 08:26:25;;;;;;;;;;;10.10;99.90;;;;;;4590711;19;19910;-32
2023/01/27 08:27:56;;;;;;;;;;;10.10;99.90;;;;;;4590537;19;20379;-33
2023/01/27 08:29:28;;;;;;;;;;;10.10;99.90;;;;;;4591463;19;20392;-33
2023/01/27 08:31:03;;;;;;;;;;;10.10;99.90;;;;;;4591689;19;19922;-32
2023/01/27 08:32:34;;;;;;;;;;;10.10;99.90;;;;;;4588397;19;19915;-33
2023/01/27 08:34:05;;;;;;;;;;;10.10;99.90;;;;;;4590257;19;19919;-32
2023/01/27 08:35:37;;;;;;;;;;;10.10;99.90;;;;;;4589460;19;19982;-33
2023/01/27 08:37:09;;;;;;;;;;;10.10;99.90;;;;;;4590568;19;19985;-33
2023/01/27 08:38:40;;;;;;;;;;;10.10;99.90;;;;;;4592213;19;19915;-33
2023/01/27 08:40:12;;;;;;;;;;;10.10;99.90;;;;;;4589856;19;19978;-34
2023/01/27 08:41:43;;;;;;;;;;;10.10;99.90;;;;;;4592544;19;19978;-32
2023/01/27 08:43:17;;;;;;;;;;;10.10;99.90;;;;;;4589167;19;19919;-33
2023/01/27 08:44:48;;;;;;;;;;;10.10;99.90;;;;;;4590165;19;19915;-33
2023/01/27 08:46:19;;;;;;;;;;;10.10;99.90;;;;;;4590459;19;19919;-32
2023/01/27 08:47:50;;;;;;;;;;;10.10;99.90;;;;;;4589762;19;20305;-33
2023/01/27 08:49:21;;;;;;;;;;;10.10;99.90;;;;;;4589990;19;19911;-32
2023/01/27 08:50:53;;;;;;;;;;;10.10;99.90;;;;;;4590085;19;19982;-34
2023/01/27 08:52:26;;;;;;;;;;;10.10;99.90;;;;;;4590844;19;19915;-33
2023/01/27 08:53:57;;;;;;;;;;;10.20;99.90;;;;;;4590984;19;20244;-33
2023/01/27 08:55:29;;;;;;;;;;;10.20;99.90;;;;;;4589616;19;19918;-33
2023/01/27 08:57:00;;;;;;;;;;;10.20;99.90;;;;;;4589217;19;19919;-33
2023/01/27 08:58:32;;;;;;;;;;;10.30;99.90;;;;;;4590735;19;19918;-32
2023/01/27 09:00:04;;;;;;;;;;;10.30;99.90;;;;;;4589819;19;20287;-33
2023/01/27 09:01:34;;;;;;;;;;;10.30;99.90;;;;;;4592332;19;19928;-34
2023/01/27 09:03:06;;;;;;;;;;;10.30;99.90;;;;;;4590696;19;20358;-32
2023/01/27 09:04:40;;;;;;;;;;;10.20;99.90;;;;;;4591129;19;19934;-32
2023/01/27 09:06:11;;;;;;;;;;;10.30;99.90;;;;;;4590148;19;19915;-33
2023/01/27 09:07:43;;;;;;;;;;;10.30;99.90;;;;;;4588986;19;19923;-33
2023/01/27 09:09:14;;;;;;;;;;;10.30;99.90;;;;;;4590032;19;19915;-33
2023/01/27 09:10:45;;;;;;;;;;;10.30;99.90;;;;;;4589936;19;19926;-33
2023/01/27 09:12:16;;;;;;;;;;;10.20;99.90;;;;;;4589166;19;20313;-33
2023/01/27 09:13:47;;;;;;;;;;;10.30;99.90;;;;;;4590062;19;19911;-32
2023/01/27 09:15:18;;;;;;;;;;;10.30;99.90;;;;;;4590096;19;19910;-32
2023/01/27 09:16:50;;;;;;;;;;;10.30;99.90;;;;;;4590509;19;19926;-33
2023/01/27 09:18:21;;;;;;;;;;;10.30;99.90;;;;;;4590119;19;20226;-32
2023/01/27 09:19:52;;;;;;;;;;;10.30;99.90;;;;;;4590407;19;19941;-33
2023/01/27 09:21:23;;;;;;;;;;;10.20;99.90;;;;;;4590184;19;19974;-31
2023/01/27 09:22:55;;;;;;;;;;;10.10;99.90;;;;;;4590189;19;19915;-33
2023/01/27 09:24:25;;;;;;;;;;;10.10;99.90;;;;;;4588801;19;19935;-32
2023/01/27 09:25:57;;;;;;;;;;;10.10;99.90;;;;;;4589250;19;20328;-33
2023/01/27 09:27:46;;;;;;;;;;;10.20;99.90;;;;;;4590527;19;19948;-33
2023/01/27 09:29:17;;;;;;;;;;;10.20;99.90;;;;;;4590409;19;20257;-33
2023/01/27 09:30:49;;;;;;;;;;;10.20;99.90;;;;;;4589413;19;19997;-33
2023/01/27 09:32:20;;;;;;;;;;;10.30;99.90;;;;;;4590096;19;19942;-33
2023/01/27 09:33:51;;;;;;;;;;;10.30;99.90;;;;;;4590090;19;20022;-32
2023/01/27 09:35:22;;;;;;;;;;;10.30;99.90;;;;;;4589433;19;19925;-32
2023/01/27 09:36:55;;;;;;;;;;;10.30;99.90;;;;;;4588358;19;19922;-33
2023/01/27 09:38:44;;;;;;;;;;;10.30;99.90;;;;;;4588022;19;19915;-34
2023/01/27 09:40:32;;;;;;;;;;;10.30;99.90;;;;;;4588465;19;19919;-33
2023/01/27 09:42:18;;;;;;;;;;;10.30;99.90;;;;;;4590190;19;19946;-32
2023/01/27 09:43:52;;;;;;;;;;;10.40;99.90;;;;;;4589842;19;19915;-33
2023/01/27 09:45:24;;;;;;;;;;;10.40;99.90;;;;;;4593960;19;20332;-32
2023/01/27 09:47:07;;;;;;;;;;;10.30;99.90;;;;;;4593823;19;20401;-32
2023/01/27 09:48:38;;;;;;;;;;;10.30;99.90;;;;;;4594281;19;19985;-35
2023/01/27 09:50:21;;;;;;;;;;;10.30;99.90;;;;;;4592491;19;19922;-31
2023/01/27 09:52:11;;;;;;;;;;;10.30;99.90;;;;;;4596026;19;19911;-33
2023/01/27 09:54:00;;;;;;;;;;;10.30;99.90;;;;;;4591733;19;20364;-35
2023/01/27 09:56:07;;;;;;;;;;;10.40;99.90;;;;;;4593282;19;19927;-34
2023/01/27 09:57:58;;;;;;;;;;;10.40;99.90;;;;;;4591871;19;19986;-33
2023/01/27 09:59:43;;;;;;;;;;;10.40;99.90;;;;;;4591895;19;20002;-34
2023/01/27 10:01:17;;;;;;;;;;;10.40;99.90;;;;;;4591907;19;20009;-32
2023/01/27 10:02:57;;;;;;;;;;;10.40;99.90;;;;;;4592856;19;20313;-34
2023/01/27 10:04:39;;;;;;;;;;;10.40;99.90;;;;;;4591259;19;20274;-35
2023/01/27 10:06:18;;;;;;;;;;;10.40;99.90;;;;;;4591310;19;20029;-33
2023/01/27 10:08:04;;;;;;;;;;;10.40;99.90;;;;;;4591530;19;19933;-34
2023/01/27 10:09:41;;;;;;;;;;;10.40;99.90;;;;;;4591733;19;20011;-34
2023/01/27 10:11:12;;;;;;;;;;;10.40;99.90;;;;;;4591788;19;19923;-32
2023/01/27 10:12:52;;;;;;;;;;;10.50;99.90;;;;;;4590238;19;19919;-34
2023/01/27 10:14:37;;;;;;;;;;;10.50;99.90;;;;;;4591402;19;19918;-33
2023/01/27 10:16:19;;;;;;;;;;;10.50;99.90;;;;;;4590978;19;19918;-34
2023/01/27 10:18:01;;;;;;;;;;;10.50;99.90;;;;;;4591002;19;20326;-33
2023/01/27 10:19:44;;;;;;;;;;;10.50;99.90;;;;;;4591885;19;19915;-35
2023/01/27 10:21:18;;;;;;;;;;;10.40;99.90;;;;;;4591428;19;20319;-33
2023/01/27 10:22:49;;;;;;;;;;;10.40;99.90;;;;;;4591349;19;19911;-32
2023/01/27 10:24:23;;;;;;;;;;;10.30;99.90;;;;;;4590879;19;20294;-34
2023/01/27 10:26:05;;;;;;;;;;;10.30;99.90;;;;;;4591787;19;19925;-34
2023/01/27 10:27:36;;;;;;;;;;;10.30;99.90;;;;;;4591818;19;19907;-34
2023/01/27 10:29:08;;;;;;;;;;;10.30;99.90;;;;;;4593295;19;19921;-34
2023/01/27 10:31:06;;;;;;;;;;;10.40;99.90;;;;;;4591356;19;20354;-34
2023/01/27 10:32:42;;;;;;;;;;;10.40;99.90;;;;;;4590508;19;19922;-33
2023/01/27 10:34:36;;;;;;;;;;;10.40;99.90;;;;;;4591679;19;19923;-33
2023/01/27 10:36:11;;;;;;;;;;;10.40;99.90;;;;;;4590106;19;19915;-34
2023/01/27 10:37:42;;;;;;;;;;;10.40;99.90;;;;;;4592528;19;19910;-32
2023/01/27 10:39:13;;;;;;;;;;;10.50;99.90;;;;;;4592221;19;19990;-33
2023/01/27 10:40:47;;;;;;;;;;;10.50;99.90;;;;;;4593423;19;20261;-34
2023/01/27 10:42:27;;;;;;;;;;;10.50;99.90;;;;;;4593564;19;19942;-35
2023/01/27 10:44:18;;;;;;;;;;;10.40;99.90;;;;;;4592098;19;19923;-34
2023/01/27 10:46:10;;;;;;;;;;;10.40;99.90;;;;;;4593198;19;19937;-33
2023/01/27 10:47:48;;;;;;;;;;;10.20;99.90;;;;;;4590654;19;19936;-34
2023/01/27 10:49:23;;;;;;;;;;;10.20;99.90;;;;;;4590851;19;20660;-33
2023/01/27 10:50:58;;;;;;;;;;;10.20;99.90;;;;;;4591251;19;19929;-34
2023/01/27 10:52:35;;;;;;;;;;;10.10;99.90;;;;;;4590599;19;19926;-34
2023/01/27 10:54:23;;;;;;;;;;;10.10;99.90;;;;;;4590730;19;19929;-33
2023/01/27 10:55:57;;;;;;;;;;;10.20;99.90;;;;;;4588537;19;19990;-32
2023/01/27 10:57:29;;;;;;;;;;;10.20;99.90;;;;;;4591137;19;19966;-34
2023/01/27 10:59:03;;;;;;;;;;;10.20;99.90;;;;;;4591246;19;19922;-34
2023/01/27 11:00:35;;;;;;;;;;;10.30;99.90;;;;;;4590766;19;20005;-34
2023/01/27 11:02:11;;;;;;;;;;;10.20;99.90;;;;;;4590647;19;19914;-33
2023/01/27 11:03:44;;;;;;;;;;;10.20;99.90;;;;;;4590789;19;19918;-33
2023/01/27 11:05:23;;;;;;;;;;;10.20;99.90;;;;;;4590699;19;19934;-33
2023/01/27 11:06:54;;;;;;;;;;;10.20;99.90;;;;;;4590409;19;19930;-35
2023/01/27 11:08:27;;;;;;;;;;;10.20;99.90;;;;;;4590500;19;19910;-32
2023/01/27 11:10:00;;;;;;;;;;;10.20;99.90;;;;;;4590611;19;20078;-34
2023/01/27 11:11:51;;;;;;;;;;;10.30;99.90;;;;;;4590644;19;20011;-34
2023/01/27 11:13:22;;;;;;;;;;;10.30;99.90;;;;;;4588875;19;20341;-34
2023/01/27 11:14:53;;;;;;;;;;;10.30;99.90;;;;;;4590366;19;19923;-33
2023/01/27 11:16:24;;;;;;;;;;;10.30;99.90;;;;;;4589329;19;19926;-35
2023/01/27 11:17:58;;;;;;;;;;;10.30;99.90;;;;;;4590458;19;19963;-33
2023/01/27 11:19:33;;;;;;;;;;;10.30;99.90;;;;;;4589665;19;19986;-32
2023/01/27 11:21:04;;;;;;;;;;;10.30;99.90;;;;;;4589464;19;20015;-32
2023/01/27 11:22:37;;;;;;;;;;;10.30;99.90;;;;;;4589948;19;19918;-33
2023/01/27 11:24:20;;;;;;;;;;;10.40;99.90;;;;;;4590174;19;19919;-32
2023/01/27 11:26:09;;;;;;;;;;;10.40;99.90;;;;;;4590423;19;19934;-33
2023/01/27 11:27:46;;;;;;;;;;;10.40;99.90;;;;;;4591562;19;19922;-32
2023/01/27 11:29:26;;;;;;;;;;;10.40;99.90;;;;;;4593135;19;20249;-32
2023/01/27 11:31:03;;;;;;;;;;;10.40;99.90;;;;;;4590642;19;19914;-34
2023/01/27 11:32:49;;;;;;;;;;;10.40;99.90;;;;;;4591583;19;19922;-33
2023/01/27 11:34:22;;;;;;;;;;;10.40;99.90;;;;;;4591943;19;19985;-33
2023/01/27 11:35:53;;;;;;;;;;;10.40;99.90;;;;;;4590391;19;20329;-35
2023/01/27 11:37:26;;;;;;;;;;;10.30;99.90;;;;;;4591557;19;19928;-32
2023/01/27 11:38:57;;;;;;;;;;;10.30;99.90;;;;;;4590268;19;19992;-33
2023/01/27 11:40:31;;;;;;;;;;;10.30;99.90;;;;;;4592327;19;19910;-34
2023/01/27 11:42:02;;;;;;;;;;;10.30;99.80;;;;;;4590709;19;19925;-34
2023/01/27 11:43:35;;;;;;;;;;;10.30;99.90;;;;;;4591651;19;20325;-33
2023/01/27 11:45:10;;;;;;;;;;;10.30;99.90;;;;;;4592969;19;19970;-33
2023/01/27 11:46:42;;;;;;;;;;;10.30;99.90;;;;;;4590656;19;19929;-33
2023/01/27 11:48:14;;;;;;;;;;;10.40;99.90;;;;;;4591182;19;20260;-32
2023/01/27 11:49:46;;;;;;;;;;;10.40;99.90;;;;;;4590637;19;19935;-32
2023/01/27 11:51:19;;;;;;;;;;;10.40;99.90;;;;;;4590895;19;19929;-32
2023/01/27 11:52:51;;;;;;;;;;;10.40;99.90;;;;;;4589688;19;20328;-34
2023/01/27 11:54:22;;;;;;;;;;;10.40;99.90;;;;;;4590586;19;19919;-35
2023/01/27 11:55:57;;;;;;;;;;;10.40;99.90;;;;;;4590406;19;20304;-34
2023/01/27 11:57:28;;;;;;;;;;;10.40;99.90;;;;;;4592449;19;19978;-34
2023/01/27 11:59:04;;;;;;;;;;;10.40;99.90;;;;;;4591499;19;19919;-35
2023/01/27 12:00:43;;;;;;;;;;;10.40;99.90;;;;;;4589416;19;20362;-34
2023/01/27 12:02:26;;;;;;;;;;;10.50;99.90;;;;;;4590382;19;19970;-33
2023/01/27 12:03:58;;;;;;;;;;;10.50;99.80;;;;;;4591083;19;19918;-32
2023/01/27 12:05:30;;;;;;;;;;;10.50;99.80;;;;;;4590306;19;19945;-31
2023/01/27 12:07:03;;;;;;;;;;;10.40;99.90;;;;;;4589170;19;20279;-33
2023/01/27 12:08:40;;;;;;;;;;;10.40;99.70;;;;;;4587925;19;19914;-30
2023/01/27 12:10:20;;;;;;;;;;;10.40;99.90;;;;;;4590716;19;19978;-32
2023/01/27 12:11:54;;;;;;;;;;;10.40;99.90;;;;;;4590623;19;19919;-31
2023/01/27 12:13:25;;;;;;;;;;;10.30;99.70;;;;;;4588646;19;19943;-32
2023/01/27 12:14:57;;;;;;;;;;;10.40;99.90;;;;;;4589390;19;20340;-31
2023/01/27 12:16:48;;;;;;;;;;;10.30;99.70;;;;;;4588771;19;19919;-32
2023/01/27 12:18:19;;;;;;;;;;;10.30;99.90;;;;;;4590336;19;20300;-30
2023/01/27 12:19:51;;;;;;;;;;;10.30;99.80;;;;;;4589461;19;20352;-34
2023/01/27 12:21:32;;;;;;;;;;;10.30;99.60;;;;;;4589340;19;19922;-32
2023/01/27 12:23:05;;;;;;;;;;;10.30;99.80;;;;;;4590709;19;19915;-30
2023/01/27 12:24:37;;;;;;;;;;;10.40;99.70;;;;;;4590479;19;20234;-33
2023/01/27 12:26:09;;;;;;;;;;;10.40;99.90;;;;;;4589032;19;19944;-30
2023/01/27 12:27:45;;;;;;;;;;;10.40;99.60;;;;;;4590919;19;19935;-31
2023/01/27 12:29:21;;;;;;;;;;;10.40;99.70;;;;;;4592288;19;19923;-32
2023/01/27 12:30:54;;;;;;;;;;;10.50;99.90;;;;;;4590156;19;19942;-33
2023/01/27 12:32:37;;;;;;;;;;;10.50;99.80;;;;;;4589752;19;19925;-30
2023/01/27 12:34:12;;;;;;;;;;;10.50;99.80;;;;;;4589548;19;19925;-33
2023/01/27 12:35:46;;;;;;;;;;;10.40;99.70;;;;;;4590583;19;19926;-32
2023/01/27 12:37:24;;;;;;;;;;;10.40;99.80;;;;;;4590134;19;19914;-31
2023/01/27 12:38:57;;;;;;;;;;;10.50;99.80;;;;;;4587797;19;20249;-32
2023/01/27 12:40:29;;;;;;;;;;;10.50;99.90;;;;;;4588592;19;19974;-33
2023/01/27 12:42:00;;;;;;;;;;;10.50;99.90;;;;;;4588711;19;20364;-34
2023/01/27 12:43:32;;;;;;;;;;;10.50;99.90;;;;;;4588062;19;19939;-33
2023/01/27 12:45:18;;;;;;;;;;;10.50;99.90;;;;;;4588330;19;19930;-33
2023/01/27 12:46:58;;;;;;;;;;;10.50;99.90;;;;;;4588037;19;19919;-31
2023/01/27 12:48:29;;;;;;;;;;;10.50;99.90;;;;;;4587734;19;19922;-31
2023/01/27 12:50:21;;;;;;;;;;;10.60;99.90;;;;;;4588522;19;20257;-32
2023/01/27 12:51:53;;;;;;;;;;;10.60;99.90;;;;;;4588586;19;19971;-32
2023/01/27 12:53:26;;;;;;;;;;;10.60;99.80;;;;;;4588460;19;19911;-30
2023/01/27 12:54:58;;;;;;;;;;;10.60;99.80;;;;;;4588333;19;19923;-32
2023/01/27 12:56:29;;;;;;;;;;;10.60;99.90;;;;;;4587867;19;20253;-34
2023/01/27 12:58:00;;;;;;;;;;;10.60;99.90;;;;;;4588767;19;20476;-33
2023/01/27 12:59:32;;;;;;;;;;;10.60;99.90;;;;;;4587993;19;19915;-31
2023/01/27 13:01:22;;;;;;;;;;;10.60;99.90;;;;;;4587692;19;19915;-31
2023/01/27 13:02:55;;;;;;;;;;;10.60;99.90;;;;;;4589233;19;19922;-33
2023/01/27 13:04:27;;;;;;;;;;;10.60;99.90;;;;;;4588671;19;19950;-33
2023/01/27 13:05:58;;;;;;;;;;;10.60;99.90;;;;;;4590364;19;19922;-33
2023/01/27 13:07:30;;;;;;;;;;;10.60;99.90;;;;;;4589198;19;19921;-33
2023/01/27 13:09:02;;;;;;;;;;;10.60;99.90;;;;;;4589518;19;19915;-32
2023/01/27 13:10:33;;;;;;;;;;;10.50;99.90;;;;;;4589483;19;19986;-33
2023/01/27 13:12:15;;;;;;;;;;;10.60;99.90;;;;;;4589421;19;19931;-32
2023/01/27 13:13:50;;;;;;;;;;;10.50;99.90;;;;;;4590108;19;19930;-32
2023/01/27 13:15:22;;;;;;;;;;;10.50;99.90;;;;;;4590408;19;19919;-32
2023/01/27 13:16:54;;;;;;;;;;;10.50;99.90;;;;;;4588099;19;19915;-33
2023/01/27 13:18:26;;;;;;;;;;;10.50;99.90;;;;;;4590292;19;19994;-34
2023/01/27 13:19:57;;;;;;;;;;;10.40;99.90;;;;;;4592994;19;20303;-32
2023/01/27 13:21:33;;;;;;;;;;;10.50;99.90;;;;;;4594205;19;19942;-33
2023/01/27 13:23:21;;;;;;;;;;;10.40;99.90;;;;;;4593599;19;19929;-33
2023/01/27 13:24:54;;;;;;;;;;;10.50;99.90;;;;;;4594235;19;19910;-33
2023/01/27 13:26:27;;;;;;;;;;;10.50;99.90;;;;;;4594044;19;20218;-33
2023/01/27 13:27:59;;;;;;;;;;;10.50;99.90;;;;;;4594711;19;19961;-33
2023/01/27 13:29:30;;;;;;;;;;;9.10;99.90;;;;;;4593760;19;19918;-34
2023/01/27 13:31:02;;;;;;;;;;;7.60;99.90;;;;;;4594278;19;19919;-33
2023/01/27 13:32:34;;;;;;;;;;;7.00;99.90;;;;;;4592219;19;20385;-33
2023/01/27 13:34:10;;;;;;;;;;;6.70;99.90;;;;;;4593256;19;19919;-33
2023/01/27 13:35:42;;;;;;;;;;;6.60;99.90;;;;;;4593182;19;19919;-32
2023/01/27 13:37:18;;;;;;;;;;;6.50;99.90;;;;;;4594214;19;20397;-33
2023/01/27 13:39:13;;;;;;;;;;;6.40;99.90;;;;;;4592631;19;20242;-32
2023/01/27 13:40:44;;;;;;;;;;;6.40;99.90;;;;;;4593469;19;19922;-33
2023/01/27 13:42:18;;;;;;;;;;;6.40;99.90;;;;;;4594020;19;19987;-33
2023/01/27 13:43:55;;;;;;;;;;;6.40;99.90;;;;;;4593997;19;19915;-33
2023/01/27 13:45:52;;;;;;;;;;;6.30;99.90;;;;;;4593670;19;19918;-33
2023/01/27 13:47:25;;;;;;;;;;;6.30;99.90;;;;;;4594306;19;19919;-33
2023/01/27 13:48:57;;;;;;;;;;;6.30;99.90;;;;;;4594811;19;19914;-32